createdAt,value
2022-08-04T00:02:25.411Z,101351.16
2022-08-04T00:05:03.410Z,101340.66
2022-08-04T00:07:43.897Z,101346.28
2022-08-04T00:10:13.874Z,101338.94
2022-08-04T00:12:43.493Z,101343.97
2022-08-04T00:15:14.983Z,101340.63
2022-08-04T00:18:01.037Z,101337.97
2022-08-04T00:20:32.266Z,101342.03
2022-08-04T00:23:00.350Z,101341.03
2022-08-04T00:25:27.669Z,101346.09
2022-08-04T00:27:55.263Z,101342.88
2022-08-04T00:30:22.215Z,101334.91
2022-08-04T00:32:49.941Z,101336.19
2022-08-04T00:35:17.086Z,101335.94
2022-08-04T00:37:45.412Z,101319.84
2022-08-04T00:40:18.016Z,101323.66
2022-08-04T00:43:12.099Z,101316.78
2022-08-04T00:46:10.754Z,101326.91
2022-08-04T00:48:27.969Z,101320.69
2022-08-04T00:51:16.304Z,101319.00
2022-08-04T00:54:11.557Z,101321.50
2022-08-04T00:56:55.371Z,101313.69
2022-08-04T00:59:43.108Z,101310.34
2022-08-04T01:02:21.915Z,101308.03
2022-08-04T01:04:58.430Z,101314.50
2022-08-04T01:07:53.414Z,101304.16
2022-08-04T01:10:24.958Z,101305.84
2022-08-04T01:13:26.378Z,101306.81
2022-08-04T01:16:11.373Z,101294.84
2022-08-04T01:18:56.020Z,101293.06
2022-08-04T01:21:41.345Z,101294.75
2022-08-04T01:24:10.733Z,101293.88
2022-08-04T01:27:06.055Z,101293.75
2022-08-04T01:29:48.769Z,101286.78
2022-08-04T01:32:15.366Z,101284.41
2022-08-04T01:34:47.424Z,101282.06
2022-08-04T01:37:32.541Z,101281.59
2022-08-04T01:40:06.458Z,101283.66
2022-08-04T01:42:35.063Z,101284.84
2022-08-04T01:45:10.435Z,101286.06
2022-08-04T01:47:40.354Z,101289.41
2022-08-04T01:50:13.000Z,101289.69
2022-08-04T01:52:46.520Z,101290.28
2022-08-04T01:55:18.285Z,101287.78
2022-08-04T01:57:52.480Z,101286.06
2022-08-04T02:00:26.747Z,101292.88
2022-08-04T02:02:54.423Z,101282.81
2022-08-04T02:05:22.968Z,101273.88
2022-08-04T02:07:55.377Z,101278.22
2022-08-04T02:10:42.081Z,101283.66
2022-08-04T02:13:24.729Z,101276.72
2022-08-04T02:16:18.823Z,101277.97
2022-08-04T02:19:22.718Z,101275.31
2022-08-04T02:21:57.183Z,101274.38
2022-08-04T02:24:27.747Z,101282.09
2022-08-04T02:26:57.300Z,101274.84
2022-08-04T02:29:45.576Z,101278.88
2022-08-04T02:32:22.065Z,101273.88
2022-08-04T02:35:07.812Z,101262.84
2022-08-04T02:37:35.459Z,101258.53
2022-08-04T02:40:05.301Z,101258.66
2022-08-04T02:42:33.500Z,101256.72
2022-08-04T02:45:00.895Z,101248.22
2022-08-04T02:48:29.356Z,101247.22
2022-08-04T02:50:28.708Z,101247.91
2022-08-04T02:52:58.343Z,101257.41
2022-08-04T02:55:27.446Z,101252.38
2022-08-04T02:57:55.293Z,101248.09
2022-08-04T03:00:22.734Z,101239.00
2022-08-04T03:03:16.725Z,101243.47
2022-08-04T03:06:11.572Z,101241.78
2022-08-04T03:09:18.137Z,101233.69
2022-08-04T03:12:26.621Z,101233.84
2022-08-04T03:15:09.632Z,101235.13
2022-08-04T03:17:57.515Z,101237.34
2022-08-04T03:20:33.131Z,101248.78
2022-08-04T03:23:14.052Z,101245.72
2022-08-04T03:26:02.282Z,101246.13
2022-08-04T03:28:50.859Z,101237.91
2022-08-04T03:31:35.592Z,101237.38
2022-08-04T03:34:23.705Z,101238.19
2022-08-04T03:37:05.418Z,101234.47
2022-08-04T03:39:40.618Z,101232.91
2022-08-04T03:42:12.108Z,101227.19
2022-08-04T03:45:23.087Z,101232.50
2022-08-04T03:48:37.977Z,101237.78
2022-08-04T03:51:45.341Z,101239.34
2022-08-04T03:54:49.934Z,101242.41
2022-08-04T03:57:36.398Z,101237.78
2022-08-04T04:00:28.551Z,101218.81
2022-08-04T04:03:23.553Z,101236.69
2022-08-04T04:06:30.923Z,101238.66
2022-08-04T04:09:56.916Z,101235.00
2022-08-04T04:12:34.234Z,101236.81
2022-08-04T04:15:21.960Z,101234.59
2022-08-04T04:18:02.818Z,101241.97
2022-08-04T04:20:48.561Z,101236.28
2022-08-04T04:23:36.620Z,101228.16
2022-08-04T04:26:22.039Z,101236.81
2022-08-04T04:29:03.420Z,101230.56
2022-08-04T04:31:38.464Z,101223.16
2022-08-04T04:34:41.760Z,101225.53
2022-08-04T04:37:31.340Z,101224.28
2022-08-04T04:40:16.036Z,101235.41
2022-08-04T04:43:09.676Z,101232.06
2022-08-04T04:46:31.170Z,101227.63
2022-08-04T04:49:32.072Z,101234.31
2022-08-04T04:52:07.580Z,101235.84
2022-08-04T04:55:00.243Z,101237.25
2022-08-04T04:57:53.118Z,101233.75
2022-08-04T05:00:18.515Z,101240.88
2022-08-04T05:03:24.708Z,101247.94
2022-08-04T05:05:51.062Z,101252.00
2022-08-04T05:08:43.079Z,101245.19
2022-08-04T05:11:15.032Z,101251.19
2022-08-04T05:14:38.143Z,101248.25
2022-08-04T05:17:03.028Z,101246.97
2022-08-04T05:19:38.368Z,101251.31
2022-08-04T05:22:14.801Z,101247.41
2022-08-04T05:24:44.561Z,101246.97
2022-08-04T05:27:28.520Z,101243.59
2022-08-04T05:29:59.197Z,101246.81
2022-08-04T05:32:32.862Z,101244.72
2022-08-04T05:35:05.150Z,101250.72
2022-08-04T05:37:34.873Z,101253.38
2022-08-04T05:40:05.841Z,101249.88
2022-08-04T05:42:35.893Z,101250.28
2022-08-04T05:45:03.550Z,101257.13
2022-08-04T05:47:32.369Z,101256.81
2022-08-04T05:50:03.209Z,101254.72
2022-08-04T05:52:31.517Z,101249.88
2022-08-04T05:55:00.370Z,101247.06
2022-08-04T05:57:27.614Z,101244.00
2022-08-04T05:59:57.113Z,101239.50
2022-08-04T06:02:24.541Z,101241.75
2022-08-04T06:04:53.251Z,101238.53
2022-08-04T06:07:20.325Z,101240.91
2022-08-04T06:09:47.349Z,101246.91
2022-08-04T06:12:32.580Z,101245.66
2022-08-04T06:15:01.477Z,101249.25
2022-08-04T06:19:58.440Z,101242.56
2022-08-04T06:20:34.756Z,101244.34
2022-08-04T06:23:04.464Z,101245.72
2022-08-04T06:25:39.407Z,101242.66
2022-08-04T06:28:07.700Z,101246.00
2022-08-04T06:30:37.075Z,101244.72
2022-08-04T06:33:13.776Z,101244.28
2022-08-04T06:35:41.130Z,101240.78
2022-08-04T06:38:09.421Z,101244.13
2022-08-04T06:40:36.306Z,101249.03
2022-08-04T06:43:07.726Z,101250.22
2022-08-04T06:45:36.986Z,101245.16
2022-08-04T06:48:06.171Z,101246.03
2022-08-04T06:51:27.183Z,101255.19
2022-08-04T06:53:21.813Z,101260.06
2022-08-04T06:55:50.139Z,101263.25
2022-08-04T06:58:19.255Z,101266.06
2022-08-04T07:00:48.073Z,101265.09
2022-08-04T07:03:16.966Z,101263.41
2022-08-04T07:05:46.128Z,101263.00
2022-08-04T07:08:13.457Z,101273.31
2022-08-04T07:10:40.690Z,101271.66
2022-08-04T07:13:09.354Z,101275.97
2022-08-04T07:15:38.945Z,101277.25
2022-08-04T07:18:05.589Z,101273.31
2022-08-04T07:20:35.355Z,101281.28
2022-08-04T07:23:07.556Z,101279.75
2022-08-04T07:26:11.433Z,101278.94
2022-08-04T07:28:28.624Z,101272.19
2022-08-04T07:30:56.755Z,101277.22
2022-08-04T07:33:24.562Z,101278.63
2022-08-04T07:36:09.480Z,101280.56
2022-08-04T07:38:48.177Z,101278.13
2022-08-04T07:41:37.750Z,101283.97
2022-08-04T07:44:05.154Z,101289.13
2022-08-04T07:46:31.891Z,101290.25
2022-08-04T07:49:00.892Z,101289.94
2022-08-04T07:51:28.771Z,101282.41
2022-08-04T07:53:57.120Z,101291.72
2022-08-04T07:56:25.271Z,101288.91
2022-08-04T07:58:51.681Z,101292.25
2022-08-04T08:01:19.478Z,101287.47
2022-08-04T08:03:48.040Z,101294.31
2022-08-04T08:06:30.878Z,101297.81
2022-08-04T08:09:00.932Z,101297.66
2022-08-04T08:12:37.696Z,101308.59
2022-08-04T08:14:25.646Z,101301.69
2022-08-04T08:16:52.263Z,101302.59
2022-08-04T08:19:18.800Z,101298.66
2022-08-04T08:21:59.696Z,101297.91
2022-08-04T08:24:27.978Z,101296.06
2022-08-04T08:26:55.886Z,101306.34
2022-08-04T08:29:22.689Z,101301.44
2022-08-04T08:31:58.419Z,101309.16
2022-08-04T08:34:28.873Z,101308.69
2022-08-04T08:37:14.985Z,101308.59
2022-08-04T08:39:53.467Z,101305.25
2022-08-04T08:42:55.701Z,101312.31
2022-08-04T08:45:22.040Z,101306.56
2022-08-04T08:48:21.491Z,101313.47
2022-08-04T08:50:56.875Z,101323.66
2022-08-04T08:53:49.389Z,101314.97
2022-08-04T08:56:39.530Z,101310.94
2022-08-04T08:59:30.168Z,101319.34
2022-08-04T09:02:15.137Z,101318.38
2022-08-04T09:05:00.080Z,101322.53
2022-08-04T09:07:41.793Z,101331.22
2022-08-04T09:10:27.804Z,101322.53
2022-08-04T09:13:40.160Z,101337.66
2022-08-04T09:16:42.929Z,101336.69
2022-08-04T09:19:17.674Z,101331.44
2022-08-04T09:22:27.336Z,101335.59
2022-08-04T09:25:13.528Z,101344.22
2022-08-04T09:27:57.529Z,101346.94
2022-08-04T09:30:45.762Z,101344.47
2022-08-04T09:33:20.228Z,101338.56
2022-08-04T09:35:57.089Z,101340.75
2022-08-04T09:38:38.417Z,101334.28
2022-08-04T09:41:48.774Z,101347.44
2022-08-04T09:44:50.860Z,101349.31
2022-08-04T09:47:26.207Z,101342.66
2022-08-04T09:50:24.327Z,101346.13
2022-08-04T09:53:22.879Z,101339.63
2022-08-04T09:56:09.750Z,101340.47
2022-08-04T09:59:01.107Z,101345.66
2022-08-04T10:01:30.514Z,101356.31
2022-08-04T10:04:01.264Z,101357.38
2022-08-04T10:06:42.921Z,101358.53
2022-08-04T10:09:34.407Z,101360.34
2022-08-04T10:12:17.760Z,101363.66
2022-08-04T10:14:58.243Z,101369.13
2022-08-04T10:17:51.962Z,101369.41
2022-08-04T10:20:52.904Z,101377.41
2022-08-04T10:23:56.033Z,101371.03
2022-08-04T10:26:31.015Z,101379.19
2022-08-04T10:29:09.791Z,101389.03
2022-08-04T10:31:46.195Z,101389.38
2022-08-04T10:34:17.642Z,101388.69
2022-08-04T10:37:20.319Z,101402.50
2022-08-04T10:40:17.671Z,101410.44
2022-08-04T10:43:20.851Z,101406.22
2022-08-04T10:45:57.945Z,101416.47
2022-08-04T10:48:46.494Z,101412.94
2022-08-04T10:51:58.029Z,101403.91
2022-08-04T10:54:45.297Z,101398.06
2022-08-04T10:57:20.294Z,101410.34
2022-08-04T11:02:54.761Z,101434.41
2022-08-04T11:05:31.289Z,101426.25
2022-08-04T11:08:08.752Z,101418.97
2022-08-04T11:10:45.497Z,101417.59
2022-08-04T11:13:22.133Z,101432.56
2022-08-04T11:15:59.003Z,101441.50
2022-08-04T11:18:31.517Z,101447.56
2022-08-04T11:21:25.454Z,101450.13
2022-08-04T11:24:01.708Z,101443.00
2022-08-04T11:26:45.853Z,101439.78
2022-08-04T11:29:22.501Z,101430.69
2022-08-04T11:31:52.015Z,101422.72
2022-08-04T11:34:24.882Z,101418.28
2022-08-04T11:37:14.991Z,101424.28
2022-08-04T11:40:01.997Z,101410.50
2022-08-04T11:42:36.259Z,101407.69
2022-08-04T11:45:07.963Z,101406.88
2022-08-04T11:47:57.998Z,101402.88
2022-08-04T11:50:33.788Z,101400.22
2022-08-04T11:53:02.365Z,101405.38
2022-08-04T11:55:31.709Z,101409.91
2022-08-04T11:57:58.456Z,101405.03
2022-08-04T12:00:29.629Z,101415.06
2022-08-04T12:02:58.953Z,101416.41
2022-08-04T12:05:36.790Z,101408.25
2022-08-04T12:08:04.024Z,101402.31
2022-08-04T12:10:47.276Z,101403.31
2022-08-04T12:13:24.656Z,101405.63
2022-08-04T12:16:15.655Z,101410.97
2022-08-04T12:18:57.509Z,101403.44
2022-08-04T12:21:39.445Z,101403.06
2022-08-04T12:24:22.472Z,101408.13
2022-08-04T12:26:56.536Z,101403.75
2022-08-04T12:29:25.880Z,101409.97
2022-08-04T12:32:00.669Z,101410.47
2022-08-04T12:34:35.008Z,101423.78
2022-08-04T12:37:22.098Z,101424.72
2022-08-04T12:40:21.667Z,101424.25
2022-08-04T12:42:56.127Z,101423.84
2022-08-04T12:45:26.984Z,101421.44
2022-08-04T12:47:56.953Z,101425.66
2022-08-04T12:50:24.206Z,101414.13
2022-08-04T12:53:02.761Z,101413.59
2022-08-04T12:55:33.560Z,101410.97
2022-08-04T12:58:02.718Z,101416.69
2022-08-04T13:00:40.700Z,101412.28
2022-08-04T13:03:15.583Z,101409.63
2022-08-04T13:05:43.176Z,101410.97
2022-08-04T13:08:11.361Z,101417.03
2022-08-04T13:10:41.169Z,101409.50
2022-08-04T13:13:15.394Z,101417.44
2022-08-04T13:15:46.974Z,101426.19
2022-08-04T13:18:28.920Z,101421.00
2022-08-04T13:21:19.951Z,101417.81
2022-08-04T13:24:09.382Z,101418.19
2022-08-04T13:26:44.666Z,101420.03
2022-08-04T13:29:23.831Z,101420.84
2022-08-04T13:32:10.959Z,101418.34
2022-08-04T13:34:41.166Z,101428.13
2022-08-04T13:37:20.934Z,101426.75
2022-08-04T13:39:55.999Z,101430.94
2022-08-04T13:42:25.660Z,101427.66
2022-08-04T13:44:56.610Z,101431.47
2022-08-04T13:47:28.708Z,101427.88
2022-08-04T13:50:16.082Z,101424.75
2022-08-04T13:52:44.118Z,101427.47
2022-08-04T13:55:25.419Z,101430.97
2022-08-04T13:57:59.442Z,101431.63
2022-08-04T14:00:40.408Z,101427.25
2022-08-04T14:03:18.984Z,101428.31
2022-08-04T14:06:29.238Z,101429.41
2022-08-04T14:08:58.726Z,101425.50
2022-08-04T14:12:09.845Z,101430.19
2022-08-04T14:14:33.657Z,101427.88
2022-08-04T14:17:01.531Z,101425.16
2022-08-04T14:19:49.046Z,101431.91
2022-08-04T14:22:29.015Z,101426.75
2022-08-04T14:25:15.817Z,101424.34
2022-08-04T14:27:47.466Z,101421.94
2022-08-04T14:30:28.450Z,101425.88
2022-08-04T14:34:01.313Z,101419.69
2022-08-04T14:36:04.347Z,101423.06
2022-08-04T14:38:58.445Z,101421.00
2022-08-04T14:41:44.902Z,101422.00
2022-08-04T14:44:11.398Z,101421.72
2022-08-04T14:46:54.455Z,101422.31
2022-08-04T14:49:22.428Z,101418.75
2022-08-04T14:51:58.425Z,101428.47
2022-08-04T14:54:30.500Z,101420.94
2022-08-04T14:57:01.315Z,101431.03
2022-08-04T14:59:27.919Z,101426.63
2022-08-04T15:02:00.255Z,101436.53
2022-08-04T15:04:31.235Z,101443.91
2022-08-04T15:06:59.012Z,101440.56
2022-08-04T15:09:25.630Z,101441.13
2022-08-04T15:11:52.329Z,101444.84
2022-08-04T15:14:37.604Z,101444.31
2022-08-04T15:17:11.500Z,101443.53
2022-08-04T15:19:40.110Z,101445.91
2022-08-04T15:22:07.059Z,101443.09
2022-08-04T15:24:43.856Z,101440.75
2022-08-04T15:27:12.155Z,101450.25
2022-08-04T15:30:00.689Z,101444.41
2022-08-04T15:32:32.222Z,101458.25
2022-08-04T15:35:06.561Z,101453.41
2022-08-04T15:37:55.409Z,101459.09
2022-08-04T15:40:33.563Z,101457.44
2022-08-04T15:43:18.348Z,101462.59
2022-08-04T15:46:33.162Z,101456.09
2022-08-04T15:48:39.229Z,101462.78
2022-08-04T15:51:15.440Z,101451.13
2022-08-04T15:54:03.688Z,101444.09
2022-08-04T15:56:29.950Z,101463.97
2022-08-04T15:58:57.557Z,101455.44
2022-08-04T16:01:24.955Z,101467.28
2022-08-04T16:03:57.994Z,101466.91
2022-08-04T16:06:29.680Z,101459.94
2022-08-04T16:09:05.137Z,101469.47
2022-08-04T16:11:39.963Z,101457.44
2022-08-04T16:14:07.596Z,101466.31
2022-08-04T16:16:36.844Z,101467.13
2022-08-04T16:19:08.323Z,101477.09
2022-08-04T16:21:48.682Z,101477.44
2022-08-04T16:24:28.907Z,101478.22
2022-08-04T16:26:57.769Z,101475.03
2022-08-04T16:29:25.148Z,101484.66
2022-08-04T16:32:13.787Z,101485.38
2022-08-04T16:34:59.587Z,101478.03
2022-08-04T16:37:30.418Z,101475.09
2022-08-04T16:40:28.493Z,101480.91
2022-08-04T16:43:15.516Z,101479.59
2022-08-04T16:45:50.369Z,101483.06
2022-08-04T16:48:20.050Z,101494.44
2022-08-04T16:50:52.378Z,101486.94
2022-08-04T16:53:52.971Z,101488.06
2022-08-04T16:56:07.056Z,101486.53
2022-08-04T16:58:35.635Z,101482.56
2022-08-04T17:01:11.811Z,101492.22
2022-08-04T17:04:04.578Z,101487.81
2022-08-04T17:06:35.963Z,101479.09
2022-08-04T17:09:19.010Z,101483.59
2022-08-04T17:11:47.310Z,101480.78
2022-08-04T17:14:23.623Z,101479.28
2022-08-04T17:16:51.554Z,101478.84
2022-08-04T17:19:23.667Z,101480.31
2022-08-04T17:22:00.399Z,101476.97
2022-08-04T17:24:29.226Z,101475.44
2022-08-04T17:26:55.733Z,101486.72
2022-08-04T17:29:42.862Z,101488.69
2022-08-04T17:32:22.098Z,101476.69
2022-08-04T17:34:51.246Z,101485.13
2022-08-04T17:37:40.182Z,101484.44
2022-08-04T17:40:18.664Z,101480.44
2022-08-04T17:44:05.193Z,101486.59
2022-08-04T17:46:29.648Z,101480.03
2022-08-04T17:49:07.524Z,101487.81
2022-08-04T17:52:01.861Z,101492.19
2022-08-04T17:54:37.374Z,101497.56
2022-08-04T17:57:15.817Z,101505.31
2022-08-04T17:59:58.039Z,101503.44
2022-08-04T18:02:32.684Z,101510.31
2022-08-04T18:05:05.646Z,101511.09
2022-08-04T18:08:45.870Z,101503.38
2022-08-04T18:10:56.770Z,101510.91
2022-08-04T18:13:26.020Z,101517.22
2022-08-04T18:16:14.340Z,101512.00
2022-08-04T18:19:11.718Z,101521.25
2022-08-04T18:21:46.109Z,101523.00
2022-08-04T18:24:34.004Z,101524.28
2022-08-04T18:27:11.270Z,101515.06
2022-08-04T18:29:41.247Z,101519.00
2022-08-04T18:32:33.359Z,101513.72
2022-08-04T18:35:05.626Z,101527.97
2022-08-04T18:38:06.354Z,101525.06
2022-08-04T18:40:27.933Z,101519.44
2022-08-04T18:42:58.059Z,101527.34
2022-08-04T18:45:34.719Z,101527.91
2022-08-04T18:51:22.382Z,101528.50
2022-08-04T18:53:36.880Z,101527.94
2022-08-04T18:56:15.235Z,101537.03
2022-08-04T18:58:53.075Z,101538.31
2022-08-04T19:01:19.884Z,101532.00
2022-08-04T19:03:49.394Z,101547.69
2022-08-04T19:06:25.759Z,101548.81
2022-08-04T19:08:52.606Z,101548.81
2022-08-04T19:11:38.307Z,101564.75
2022-08-04T19:16:58.601Z,101565.88
2022-08-04T19:19:47.926Z,101582.63
2022-08-04T19:22:36.184Z,101586.84
2022-08-04T19:25:02.623Z,101586.03
2022-08-04T19:27:40.781Z,101586.97
2022-08-04T19:30:08.194Z,101580.28
2022-08-04T19:32:38.131Z,101587.94
2022-08-04T19:35:04.938Z,101592.28
2022-08-04T19:37:56.745Z,101598.16
2022-08-04T19:40:33.436Z,101594.25
2022-08-04T19:43:10.515Z,101593.97
2022-08-04T19:45:44.774Z,101599.25
2022-08-04T19:48:18.736Z,101591.59
2022-08-04T19:50:46.448Z,101594.09
2022-08-04T19:53:19.284Z,101591.72
2022-08-04T19:55:50.443Z,101599.38
2022-08-04T19:58:17.981Z,101598.41
2022-08-04T20:00:44.825Z,101596.03
2022-08-04T20:03:20.070Z,101596.88
2022-08-04T20:05:53.906Z,101593.53
2022-08-04T20:08:24.260Z,101598.41
2022-08-04T20:10:54.831Z,101603.44
2022-08-04T20:13:22.077Z,101601.88
2022-08-04T20:15:57.932Z,101607.47
2022-08-04T20:18:36.477Z,101607.75
2022-08-04T20:21:22.657Z,101610.00
2022-08-04T20:24:38.205Z,101615.84
2022-08-04T20:26:49.638Z,101619.28
2022-08-04T20:29:40.427Z,101629.88
2022-08-04T20:32:05.503Z,101621.72
2022-08-04T20:34:35.008Z,101630.91
2022-08-04T20:37:01.429Z,101633.69
2022-08-04T20:39:27.886Z,101633.56
2022-08-04T20:41:54.355Z,101629.25
2022-08-04T20:44:22.286Z,101632.16
2022-08-04T20:46:50.880Z,101634.91
2022-08-04T20:49:17.421Z,101638.16
2022-08-04T20:51:44.106Z,101636.31
2022-08-04T20:54:16.472Z,101642.88
2022-08-04T20:56:50.616Z,101643.13
2022-08-04T20:59:18.275Z,101648.28
2022-08-04T21:01:45.298Z,101654.81
2022-08-04T21:04:34.178Z,101663.03
2022-08-04T21:07:02.578Z,101651.47
2022-08-04T21:09:38.479Z,101656.50
2022-08-04T21:12:10.379Z,101660.00
2022-08-04T21:14:37.076Z,101657.75
2022-08-04T21:17:03.917Z,101653.69
2022-08-04T21:19:33.539Z,101649.41
2022-08-04T21:22:04.752Z,101648.44
2022-08-04T21:24:31.152Z,101655.50
2022-08-04T21:26:58.068Z,101652.53
2022-08-04T21:29:29.582Z,101644.94
2022-08-04T21:32:05.898Z,101654.69
2022-08-04T21:34:38.979Z,101656.63
2022-08-04T21:37:06.991Z,101656.50
2022-08-04T21:39:43.944Z,101653.75
2022-08-04T21:42:27.888Z,101652.16
2022-08-04T21:44:56.542Z,101647.28
2022-08-04T21:47:46.780Z,101640.31
2022-08-04T21:50:09.631Z,101655.22
2022-08-04T21:52:36.080Z,101653.03
2022-08-04T21:55:02.794Z,101653.78
2022-08-04T21:57:30.048Z,101664.72
2022-08-04T21:59:58.694Z,101639.47
2022-08-04T22:02:26.491Z,101630.59
2022-08-04T22:04:54.000Z,101634.19
2022-08-04T22:07:22.974Z,101634.44
2022-08-04T22:10:02.458Z,101630.50
2022-08-04T22:12:30.214Z,101613.56
2022-08-04T22:14:59.544Z,101617.56
2022-08-04T22:17:35.324Z,101615.91
2022-08-04T22:20:02.523Z,101613.63
2022-08-04T22:22:29.985Z,101618.06
2022-08-04T22:25:02.085Z,101601.44
2022-08-04T22:27:57.766Z,101596.97
2022-08-04T22:30:32.901Z,101605.31
2022-08-04T22:33:00.349Z,101601.47
2022-08-04T22:35:35.419Z,101609.41
2022-08-04T22:38:24.100Z,101589.09
2022-08-04T22:41:03.070Z,101603.03
2022-08-04T22:43:32.912Z,101606.53
2022-08-04T22:46:05.399Z,101615.91
2022-08-04T22:48:34.978Z,101622.53
2022-08-04T22:51:02.633Z,101612.59
2022-08-04T22:53:29.513Z,101607.03
2022-08-04T22:56:07.451Z,101611.16
2022-08-04T22:58:45.207Z,101595.13
2022-08-04T23:01:18.063Z,101587.00
2022-08-04T23:03:51.185Z,101584.50
2022-08-04T23:06:24.247Z,101595.91
2022-08-04T23:08:51.219Z,101587.97
2022-08-04T23:11:17.758Z,101574.03
2022-08-04T23:13:44.286Z,101553.84
2022-08-04T23:16:10.985Z,101545.31
2022-08-04T23:18:40.091Z,101557.44
2022-08-04T23:21:11.026Z,101563.81
2022-08-04T23:23:47.743Z,101573.69
2022-08-04T23:26:27.880Z,101580.91
2022-08-04T23:28:55.290Z,101580.31
2022-08-04T23:31:21.726Z,101584.66
2022-08-04T23:33:51.003Z,101594.50
2022-08-04T23:36:19.447Z,101606.25
2022-08-04T23:38:59.230Z,101609.19
2022-08-04T23:41:25.758Z,101605.53
2022-08-04T23:44:12.225Z,101607.38
2022-08-04T23:46:44.148Z,101607.47
2022-08-04T23:49:11.905Z,101595.34
2022-08-04T23:51:43.346Z,101599.16
2022-08-04T23:54:09.787Z,101603.03
2022-08-04T23:56:37.959Z,101602.69
2022-08-04T23:59:04.957Z,101604.03
